sensor_id;sensor_type;location;lat;lon;timestamp;temperature;humidity
28520;DHT22;15732;48.534;20.382;2022-09-09T00:02:11;19.90;99.90
28520;DHT22;15732;48.534;20.382;2022-09-09T00:05:02;20.00;99.90
28520;DHT22;15732;48.534;20.382;2022-09-09T00:07:46;20.00;99.90
28520;DHT22;15732;48.534;20.382;2022-09-09T00:21:34;20.00;99.90
28520;DHT22;15732;48.534;20.382;2022-09-09T00:24:10;20.10;99.90
28520;DHT22;15732;48.534;20.382;2022-09-09T00:26:47;20.10;99.90
28520;DHT22;15732;48.534;20.382;2022-09-09T00:29:34;20.10;99.90
28520;DHT22;15732;48.534;20.382;2022-09-09T00:32:14;20.10;99.90
28520;DHT22;15732;48.534;20.382;2022-09-09T00:34:49;20.20;99.90
28520;DHT22;15732;48.534;20.382;2022-09-09T00:37:19;20.20;99.90
28520;DHT22;15732;48.534;20.382;2022-09-09T00:39:48;20.20;99.90
28520;DHT22;15732;48.534;20.382;2022-09-09T00:42:41;20.20;99.90
28520;DHT22;15732;48.534;20.382;2022-09-09T00:47:46;20.20;99.90
28520;DHT22;15732;48.534;20.382;2022-09-09T00:50:42;20.20;99.90
28520;DHT22;15732;48.534;20.382;2022-09-09T00:56:21;20.10;99.90
28520;DHT22;15732;48.534;20.382;2022-09-09T01:01:30;20.10;99.90
28520;DHT22;15732;48.534;20.382;2022-09-09T01:04:08;20.10;99.90
28520;DHT22;15732;48.534;20.382;2022-09-09T01:06:37;20.10;99.90
28520;DHT22;15732;48.534;20.382;2022-09-09T01:09:38;20.00;99.90
28520;DHT22;15732;48.534;20.382;2022-09-09T01:12:43;20.10;99.90
28520;DHT22;15732;48.534;20.382;2022-09-09T01:15:24;20.10;99.90
28520;DHT22;15732;48.534;20.382;2022-09-09T01:18:02;20.00;99.90
28520;DHT22;15732;48.534;20.382;2022-09-09T01:20:55;20.00;99.90
28520;DHT22;15732;48.534;20.382;2022-09-09T01:26:32;19.90;99.90
28520;DHT22;15732;48.534;20.382;2022-09-09T01:29:00;19.90;99.90
28520;DHT22;15732;48.534;20.382;2022-09-09T01:31:36;20.00;99.90
28520;DHT22;15732;48.534;20.382;2022-09-09T01:34:19;19.90;99.90
28520;DHT22;15732;48.534;20.382;2022-09-09T01:37:03;19.90;99.90
28520;DHT22;15732;48.534;20.382;2022-09-09T01:39:33;19.70;99.90
28520;DHT22;15732;48.534;20.382;2022-09-09T01:42:08;19.70;99.90
28520;DHT22;15732;48.534;20.382;2022-09-09T01:44:38;19.70;99.90
28520;DHT22;15732;48.534;20.382;2022-09-09T01:47:06;19.70;99.90
28520;DHT22;15732;48.534;20.382;2022-09-09T01:49:33;19.70;99.90
28520;DHT22;15732;48.534;20.382;2022-09-09T01:52:04;19.80;99.90
28520;DHT22;15732;48.534;20.382;2022-09-09T01:54:33;19.70;99.90
28520;DHT22;15732;48.534;20.382;2022-09-09T02:05:36;19.70;99.90
28520;DHT22;15732;48.534;20.382;2022-09-09T02:10:45;19.80;99.90
28520;DHT22;15732;48.534;20.382;2022-09-09T02:13:34;19.80;99.90
28520;DHT22;15732;48.534;20.382;2022-09-09T02:16:28;19.90;99.90
28520;DHT22;15732;48.534;20.382;2022-09-09T02:21:35;19.90;99.90
28520;DHT22;15732;48.534;20.382;2022-09-09T02:24:06;19.90;99.90
28520;DHT22;15732;48.534;20.382;2022-09-09T02:26:40;19.90;99.90
28520;DHT22;15732;48.534;20.382;2022-09-09T02:29:12;20.00;99.90
28520;DHT22;15732;48.534;20.382;2022-09-09T02:31:45;20.00;99.90
28520;DHT22;15732;48.534;20.382;2022-09-09T02:34:14;20.00;99.90
28520;DHT22;15732;48.534;20.382;2022-09-09T02:36:44;20.00;99.90
28520;DHT22;15732;48.534;20.382;2022-09-09T02:39:13;20.00;99.90
28520;DHT22;15732;48.534;20.382;2022-09-09T02:41:41;20.00;99.90
28520;DHT22;15732;48.534;20.382;2022-09-09T02:44:11;20.00;99.90
28520;DHT22;15732;48.534;20.382;2022-09-09T02:55:28;20.00;99.90
28520;DHT22;15732;48.534;20.382;2022-09-09T02:57:59;20.00;99.90
28520;DHT22;15732;48.534;20.382;2022-09-09T03:00:33;20.00;99.90
28520;DHT22;15732;48.534;20.382;2022-09-09T03:03:06;20.00;99.90
28520;DHT22;15732;48.534;20.382;2022-09-09T03:05:34;20.00;99.90
28520;DHT22;15732;48.534;20.382;2022-09-09T03:08:03;20.00;99.90
28520;DHT22;15732;48.534;20.382;2022-09-09T03:10:31;20.00;99.90
28520;DHT22;15732;48.534;20.382;2022-09-09T03:12:58;20.00;99.90
28520;DHT22;15732;48.534;20.382;2022-09-09T03:15:25;20.00;99.90
28520;DHT22;15732;48.534;20.382;2022-09-09T03:17:55;20.00;99.90
28520;DHT22;15732;48.534;20.382;2022-09-09T03:20:24;20.10;99.90
28520;DHT22;15732;48.534;20.382;2022-09-09T03:22:56;20.00;99.90
28520;DHT22;15732;48.534;20.382;2022-09-09T03:25:23;20.10;99.90
28520;DHT22;15732;48.534;20.382;2022-09-09T03:27:55;20.10;99.90
28520;DHT22;15732;48.534;20.382;2022-09-09T03:30:26;20.00;99.90
28520;DHT22;15732;48.534;20.382;2022-09-09T03:32:53;20.10;99.90
28520;DHT22;15732;48.534;20.382;2022-09-09T03:35:24;20.00;99.90
28520;DHT22;15732;48.534;20.382;2022-09-09T03:37:55;20.10;99.90
28520;DHT22;15732;48.534;20.382;2022-09-09T03:40:22;20.00;99.90
28520;DHT22;15732;48.534;20.382;2022-09-09T03:42:50;20.00;99.90
28520;DHT22;15732;48.534;20.382;2022-09-09T03:45:17;20.00;99.90
28520;DHT22;15732;48.534;20.382;2022-09-09T03:47:49;20.00;99.90
28520;DHT22;15732;48.534;20.382;2022-09-09T03:50:16;20.10;99.90
28520;DHT22;15732;48.534;20.382;2022-09-09T03:52:44;20.00;99.90
28520;DHT22;15732;48.534;20.382;2022-09-09T03:55:13;20.00;99.90
28520;DHT22;15732;48.534;20.382;2022-09-09T03:57:41;20.00;99.90
28520;DHT22;15732;48.534;20.382;2022-09-09T04:00:10;20.00;99.90
28520;DHT22;15732;48.534;20.382;2022-09-09T04:02:37;20.10;99.90
28520;DHT22;15732;48.534;20.382;2022-09-09T04:05:07;20.10;99.90
28520;DHT22;15732;48.534;20.382;2022-09-09T04:07:35;20.10;99.90
28520;DHT22;15732;48.534;20.382;2022-09-09T04:10:03;20.10;99.90
28520;DHT22;15732;48.534;20.382;2022-09-09T04:12:31;20.00;99.90
28520;DHT22;15732;48.534;20.382;2022-09-09T04:15:02;20.00;99.90
28520;DHT22;15732;48.534;20.382;2022-09-09T04:17:30;20.00;99.90
28520;DHT22;15732;48.534;20.382;2022-09-09T04:19:57;20.10;99.90
28520;DHT22;15732;48.534;20.382;2022-09-09T04:22:25;20.10;99.90
28520;DHT22;15732;48.534;20.382;2022-09-09T04:24:52;20.10;99.90
28520;DHT22;15732;48.534;20.382;2022-09-09T04:27:20;20.10;99.90
28520;DHT22;15732;48.534;20.382;2022-09-09T04:29:47;20.10;99.90
28520;DHT22;15732;48.534;20.382;2022-09-09T04:32:15;20.10;99.90
28520;DHT22;15732;48.534;20.382;2022-09-09T04:34:42;20.10;99.90
28520;DHT22;15732;48.534;20.382;2022-09-09T04:37:11;20.10;99.90
28520;DHT22;15732;48.534;20.382;2022-09-09T04:39:40;20.10;99.90
28520;DHT22;15732;48.534;20.382;2022-09-09T04:42:08;20.10;99.90
28520;DHT22;15732;48.534;20.382;2022-09-09T04:44:35;20.10;99.90
28520;DHT22;15732;48.534;20.382;2022-09-09T04:47:03;20.10;99.90
28520;DHT22;15732;48.534;20.382;2022-09-09T04:49:31;20.10;99.90
28520;DHT22;15732;48.534;20.382;2022-09-09T04:52:03;20.10;99.90
28520;DHT22;15732;48.534;20.382;2022-09-09T04:54:30;20.00;99.90
28520;DHT22;15732;48.534;20.382;2022-09-09T04:56:57;20.00;99.90
28520;DHT22;15732;48.534;20.382;2022-09-09T04:59:25;20.00;99.90
28520;DHT22;15732;48.534;20.382;2022-09-09T05:01:53;20.00;99.90
28520;DHT22;15732;48.534;20.382;2022-09-09T05:04:24;20.00;99.90
28520;DHT22;15732;48.534;20.382;2022-09-09T05:06:51;20.00;99.90
28520;DHT22;15732;48.534;20.382;2022-09-09T05:09:19;20.00;99.90
28520;DHT22;15732;48.534;20.382;2022-09-09T05:11:50;20.00;99.90
28520;DHT22;15732;48.534;20.382;2022-09-09T05:14:17;19.90;99.90
28520;DHT22;15732;48.534;20.382;2022-09-09T05:16:45;19.90;99.90
28520;DHT22;15732;48.534;20.382;2022-09-09T05:19:13;19.90;99.90
28520;DHT22;15732;48.534;20.382;2022-09-09T05:21:41;19.90;99.90
28520;DHT22;15732;48.534;20.382;2022-09-09T05:24:08;19.90;99.90
28520;DHT22;15732;48.534;20.382;2022-09-09T05:26:40;19.90;99.90
28520;DHT22;15732;48.534;20.382;2022-09-09T05:29:07;19.90;99.90
28520;DHT22;15732;48.534;20.382;2022-09-09T05:31:35;19.90;99.90
28520;DHT22;15732;48.534;20.382;2022-09-09T05:34:06;19.90;99.90
28520;DHT22;15732;48.534;20.382;2022-09-09T05:36:34;19.80;99.90
28520;DHT22;15732;48.534;20.382;2022-09-09T05:39:02;19.90;99.90
28520;DHT22;15732;48.534;20.382;2022-09-09T05:41:30;19.80;99.90
28520;DHT22;15732;48.534;20.382;2022-09-09T05:43:58;19.90;99.90
28520;DHT22;15732;48.534;20.382;2022-09-09T05:46:27;19.90;99.90
28520;DHT22;15732;48.534;20.382;2022-09-09T05:48:59;19.90;99.90
28520;DHT22;15732;48.534;20.382;2022-09-09T05:51:28;20.00;99.90
28520;DHT22;15732;48.534;20.382;2022-09-09T05:53:56;20.10;99.90
28520;DHT22;15732;48.534;20.382;2022-09-09T05:56:30;20.10;99.90
28520;DHT22;15732;48.534;20.382;2022-09-09T05:58:59;20.10;99.90
28520;DHT22;15732;48.534;20.382;2022-09-09T06:01:32;20.20;99.90
28520;DHT22;15732;48.534;20.382;2022-09-09T06:03:59;20.20;99.90
28520;DHT22;15732;48.534;20.382;2022-09-09T06:06:31;20.20;99.90
28520;DHT22;15732;48.534;20.382;2022-09-09T06:08:58;20.20;99.90
28520;DHT22;15732;48.534;20.382;2022-09-09T06:11:27;20.30;99.90
28520;DHT22;15732;48.534;20.382;2022-09-09T06:13:58;20.30;99.90
28520;DHT22;15732;48.534;20.382;2022-09-09T06:16:27;20.30;99.90
28520;DHT22;15732;48.534;20.382;2022-09-09T06:18:55;20.30;99.90
28520;DHT22;15732;48.534;20.382;2022-09-09T06:21:24;20.30;99.90
28520;DHT22;15732;48.534;20.382;2022-09-09T06:23:52;20.30;99.90
28520;DHT22;15732;48.534;20.382;2022-09-09T06:26:33;20.30;99.90
28520;DHT22;15732;48.534;20.382;2022-09-09T06:29:01;20.30;99.90
28520;DHT22;15732;48.534;20.382;2022-09-09T06:31:31;20.30;99.90
28520;DHT22;15732;48.534;20.382;2022-09-09T06:34:00;20.30;99.90
28520;DHT22;15732;48.534;20.382;2022-09-09T06:36:29;20.20;99.90
28520;DHT22;15732;48.534;20.382;2022-09-09T06:38:57;20.30;99.90
28520;DHT22;15732;48.534;20.382;2022-09-09T06:41:27;20.30;99.90
28520;DHT22;15732;48.534;20.382;2022-09-09T06:43:58;20.40;99.90
28520;DHT22;15732;48.534;20.382;2022-09-09T06:46:31;20.50;99.90
28520;DHT22;15732;48.534;20.382;2022-09-09T06:49:00;20.50;99.90
28520;DHT22;15732;48.534;20.382;2022-09-09T06:51:29;20.60;99.90
28520;DHT22;15732;48.534;20.382;2022-09-09T06:53:57;20.60;99.90
28520;DHT22;15732;48.534;20.382;2022-09-09T06:56:40;20.60;99.90
28520;DHT22;15732;48.534;20.382;2022-09-09T06:59:10;20.60;99.90
28520;DHT22;15732;48.534;20.382;2022-09-09T07:01:40;20.60;99.90
28520;DHT22;15732;48.534;20.382;2022-09-09T07:04:07;20.60;99.90
28520;DHT22;15732;48.534;20.382;2022-09-09T07:06:37;20.60;99.90
28520;DHT22;15732;48.534;20.382;2022-09-09T07:09:10;20.60;99.90
28520;DHT22;15732;48.534;20.382;2022-09-09T07:11:43;20.70;99.90
28520;DHT22;15732;48.534;20.382;2022-09-09T07:14:10;20.70;99.90
28520;DHT22;15732;48.534;20.382;2022-09-09T07:16:41;20.60;99.90
28520;DHT22;15732;48.534;20.382;2022-09-09T07:19:09;20.60;99.90
28520;DHT22;15732;48.534;20.382;2022-09-09T07:21:40;20.60;99.90
28520;DHT22;15732;48.534;20.382;2022-09-09T07:24:11;20.60;99.90
28520;DHT22;15732;48.534;20.382;2022-09-09T07:26:39;20.70;99.90
28520;DHT22;15732;48.534;20.382;2022-09-09T07:29:10;20.70;99.90
28520;DHT22;15732;48.534;20.382;2022-09-09T07:31:40;20.70;99.90
28520;DHT22;15732;48.534;20.382;2022-09-09T07:34:08;20.70;99.90
28520;DHT22;15732;48.534;20.382;2022-09-09T07:36:40;20.70;99.90
28520;DHT22;15732;48.534;20.382;2022-09-09T07:39:13;20.80;99.90
28520;DHT22;15732;48.534;20.382;2022-09-09T07:41:47;20.80;99.90
28520;DHT22;15732;48.534;20.382;2022-09-09T07:44:23;20.80;99.90
28520;DHT22;15732;48.534;20.382;2022-09-09T07:46:51;20.80;99.90
28520;DHT22;15732;48.534;20.382;2022-09-09T07:49:19;20.70;99.90
28520;DHT22;15732;48.534;20.382;2022-09-09T07:51:47;20.70;99.90
28520;DHT22;15732;48.534;20.382;2022-09-09T07:54:17;20.70;99.90
28520;DHT22;15732;48.534;20.382;2022-09-09T07:56:47;20.80;99.90
28520;DHT22;15732;48.534;20.382;2022-09-09T07:59:16;20.70;99.90
28520;DHT22;15732;48.534;20.382;2022-09-09T08:01:49;20.70;99.90
28520;DHT22;15732;48.534;20.382;2022-09-09T08:04:18;20.70;99.90
28520;DHT22;15732;48.534;20.382;2022-09-09T08:06:51;20.70;99.90
28520;DHT22;15732;48.534;20.382;2022-09-09T08:09:23;20.80;99.90
28520;DHT22;15732;48.534;20.382;2022-09-09T08:11:54;20.80;99.90
28520;DHT22;15732;48.534;20.382;2022-09-09T08:14:23;20.80;99.90
28520;DHT22;15732;48.534;20.382;2022-09-09T08:16:51;20.90;99.90
28520;DHT22;15732;48.534;20.382;2022-09-09T08:19:20;21.00;99.90
28520;DHT22;15732;48.534;20.382;2022-09-09T08:21:47;21.00;99.90
28520;DHT22;15732;48.534;20.382;2022-09-09T08:24:16;21.00;99.90
28520;DHT22;15732;48.534;20.382;2022-09-09T08:26:45;21.10;99.90
28520;DHT22;15732;48.534;20.382;2022-09-09T08:29:13;21.10;99.90
28520;DHT22;15732;48.534;20.382;2022-09-09T08:31:51;21.10;99.90
28520;DHT22;15732;48.534;20.382;2022-09-09T08:34:21;21.10;99.90
28520;DHT22;15732;48.534;20.382;2022-09-09T08:36:49;21.10;99.90
28520;DHT22;15732;48.534;20.382;2022-09-09T08:39:21;21.10;99.90
28520;DHT22;15732;48.534;20.382;2022-09-09T08:50:25;21.20;99.90
28520;DHT22;15732;48.534;20.382;2022-09-09T08:55:50;21.20;99.90
28520;DHT22;15732;48.534;20.382;2022-09-09T08:58:51;21.30;99.90
28520;DHT22;15732;48.534;20.382;2022-09-09T09:07:05;21.40;99.90
28520;DHT22;15732;48.534;20.382;2022-09-09T09:12:38;21.40;99.90
28520;DHT22;15732;48.534;20.382;2022-09-09T09:15:31;21.50;99.90
28520;DHT22;15732;48.534;20.382;2022-09-09T09:18:05;21.50;99.90
28520;DHT22;15732;48.534;20.382;2022-09-09T09:20:38;21.50;99.90
28520;DHT22;15732;48.534;20.382;2022-09-09T09:23:26;21.60;99.90
28520;DHT22;15732;48.534;20.382;2022-09-09T09:26:00;21.70;99.90
28520;DHT22;15732;48.534;20.382;2022-09-09T09:28:33;21.90;99.90
28520;DHT22;15732;48.534;20.382;2022-09-09T09:31:06;22.00;99.90
28520;DHT22;15732;48.534;20.382;2022-09-09T09:33:54;22.20;99.90
28520;DHT22;15732;48.534;20.382;2022-09-09T09:36:42;22.40;99.90
28520;DHT22;15732;48.534;20.382;2022-09-09T09:39:41;22.50;99.90
28520;DHT22;15732;48.534;20.382;2022-09-09T09:42:13;22.50;99.90
28520;DHT22;15732;48.534;20.382;2022-09-09T09:44:41;22.60;99.90
28520;DHT22;15732;48.534;20.382;2022-09-09T09:47:19;22.60;99.90
28520;DHT22;15732;48.534;20.382;2022-09-09T09:49:57;22.50;99.90
28520;DHT22;15732;48.534;20.382;2022-09-09T09:52:27;22.50;99.90
28520;DHT22;15732;48.534;20.382;2022-09-09T09:54:58;22.50;99.90
28520;DHT22;15732;48.534;20.382;2022-09-09T09:57:30;22.50;99.90
28520;DHT22;15732;48.534;20.382;2022-09-09T10:00:24;22.40;99.90
28520;DHT22;15732;48.534;20.382;2022-09-09T10:02:51;22.40;99.90
28520;DHT22;15732;48.534;20.382;2022-09-09T10:05:38;22.40;99.90
28520;DHT22;15732;48.534;20.382;2022-09-09T10:08:15;22.30;99.90
28520;DHT22;15732;48.534;20.382;2022-09-09T10:18:58;22.00;99.90
28520;DHT22;15732;48.534;20.382;2022-09-09T10:27:01;21.90;99.90
28520;DHT22;15732;48.534;20.382;2022-09-09T10:38:13;21.90;99.90
28520;DHT22;15732;48.534;20.382;2022-09-09T10:57:42;22.50;99.90
28520;DHT22;15732;48.534;20.382;2022-09-09T11:00:44;22.60;99.90
28520;DHT22;15732;48.534;20.382;2022-09-09T11:03:38;22.80;99.90
28520;DHT22;15732;48.534;20.382;2022-09-09T11:06:14;23.00;99.90
28520;DHT22;15732;48.534;20.382;2022-09-09T11:08:44;23.10;99.90
28520;DHT22;15732;48.534;20.382;2022-09-09T11:11:39;23.20;99.90
28520;DHT22;15732;48.534;20.382;2022-09-09T11:14:44;23.30;99.90
28520;DHT22;15732;48.534;20.382;2022-09-09T11:17:18;23.50;99.90
28520;DHT22;15732;48.534;20.382;2022-09-09T11:19:45;23.50;99.90
28520;DHT22;15732;48.534;20.382;2022-09-09T11:25:14;23.50;99.90
28520;DHT22;15732;48.534;20.382;2022-09-09T11:41:52;23.60;99.90
28520;DHT22;15732;48.534;20.382;2022-09-09T11:44:28;23.50;99.90
28520;DHT22;15732;48.534;20.382;2022-09-09T11:46:56;23.60;99.90
28520;DHT22;15732;48.534;20.382;2022-09-09T11:49:40;23.60;99.90
28520;DHT22;15732;48.534;20.382;2022-09-09T11:52:21;23.60;99.90
28520;DHT22;15732;48.534;20.382;2022-09-09T11:54:49;23.60;99.90
28520;DHT22;15732;48.534;20.382;2022-09-09T11:57:35;23.70;99.90
28520;DHT22;15732;48.534;20.382;2022-09-09T12:00:06;23.70;99.90
28520;DHT22;15732;48.534;20.382;2022-09-09T12:02:34;23.70;99.90
28520;DHT22;15732;48.534;20.382;2022-09-09T12:05:35;23.80;99.90
28520;DHT22;15732;48.534;20.382;2022-09-09T12:08:09;23.80;99.90
28520;DHT22;15732;48.534;20.382;2022-09-09T12:10:41;23.80;99.90
28520;DHT22;15732;48.534;20.382;2022-09-09T12:13:21;23.70;99.90
28520;DHT22;15732;48.534;20.382;2022-09-09T12:15:54;23.70;99.90
28520;DHT22;15732;48.534;20.382;2022-09-09T12:18:41;23.60;99.90
28520;DHT22;15732;48.534;20.382;2022-09-09T12:22:04;23.70;99.90
28520;DHT22;15732;48.534;20.382;2022-09-09T12:25:07;23.70;99.90
28520;DHT22;15732;48.534;20.382;2022-09-09T12:30:16;23.60;99.90
28520;DHT22;15732;48.534;20.382;2022-09-09T12:33:12;23.60;99.90
28520;DHT22;15732;48.534;20.382;2022-09-09T12:35:43;23.70;99.90
28520;DHT22;15732;48.534;20.382;2022-09-09T12:38:34;23.70;99.90
28520;DHT22;15732;48.534;20.382;2022-09-09T12:41:26;23.70;99.90
28520;DHT22;15732;48.534;20.382;2022-09-09T12:44:06;23.70;99.90
28520;DHT22;15732;48.534;20.382;2022-09-09T12:46:55;23.70;99.90
28520;DHT22;15732;48.534;20.382;2022-09-09T12:50:01;23.70;99.90
28520;DHT22;15732;48.534;20.382;2022-09-09T12:52:54;23.70;99.90
28520;DHT22;15732;48.534;20.382;2022-09-09T12:55:25;23.70;99.90
28520;DHT22;15732;48.534;20.382;2022-09-09T12:58:18;23.70;99.90
28520;DHT22;15732;48.534;20.382;2022-09-09T13:01:17;23.80;99.90
28520;DHT22;15732;48.534;20.382;2022-09-09T13:04:15;23.70;99.90
28520;DHT22;15732;48.534;20.382;2022-09-09T13:07:15;23.70;99.90
28520;DHT22;15732;48.534;20.382;2022-09-09T13:09:43;23.60;99.90
28520;DHT22;15732;48.534;20.382;2022-09-09T13:12:33;23.60;99.90
28520;DHT22;15732;48.534;20.382;2022-09-09T13:15:26;23.60;99.90
28520;DHT22;15732;48.534;20.382;2022-09-09T13:18:13;23.60;99.90
28520;DHT22;15732;48.534;20.382;2022-09-09T13:21:00;23.60;99.90
28520;DHT22;15732;48.534;20.382;2022-09-09T13:23:32;23.50;99.90
28520;DHT22;15732;48.534;20.382;2022-09-09T13:26:25;23.50;99.90
28520;DHT22;15732;48.534;20.382;2022-09-09T13:28:54;23.50;99.90
28520;DHT22;15732;48.534;20.382;2022-09-09T13:31:30;23.40;99.90
28520;DHT22;15732;48.534;20.382;2022-09-09T13:33:58;23.40;99.90
28520;DHT22;15732;48.534;20.382;2022-09-09T13:36:34;23.40;99.90
28520;DHT22;15732;48.534;20.382;2022-09-09T13:39:03;23.40;99.90
28520;DHT22;15732;48.534;20.382;2022-09-09T13:41:44;23.40;99.90
28520;DHT22;15732;48.534;20.382;2022-09-09T13:44:35;23.40;99.90
28520;DHT22;15732;48.534;20.382;2022-09-09T13:49:39;23.40;99.90
28520;DHT22;15732;48.534;20.382;2022-09-09T13:52:13;23.40;99.90
28520;DHT22;15732;48.534;20.382;2022-09-09T13:54:41;23.50;99.90
28520;DHT22;15732;48.534;20.382;2022-09-09T13:57:16;23.50;99.90
28520;DHT22;15732;48.534;20.382;2022-09-09T13:59:46;23.50;99.90
28520;DHT22;15732;48.534;20.382;2022-09-09T14:02:14;23.50;99.90
28520;DHT22;15732;48.534;20.382;2022-09-09T14:04:41;23.50;99.90
28520;DHT22;15732;48.534;20.382;2022-09-09T14:07:15;23.60;99.90
28520;DHT22;15732;48.534;20.382;2022-09-09T14:09:43;23.60;99.90
28520;DHT22;15732;48.534;20.382;2022-09-09T14:12:18;23.60;99.90
28520;DHT22;15732;48.534;20.382;2022-09-09T14:14:45;23.60;99.90
28520;DHT22;15732;48.534;20.382;2022-09-09T14:17:17;23.60;99.90
28520;DHT22;15732;48.534;20.382;2022-09-09T14:19:44;23.60;99.90
28520;DHT22;15732;48.534;20.382;2022-09-09T14:22:12;23.60;99.90
28520;DHT22;15732;48.534;20.382;2022-09-09T14:24:39;23.60;99.90
28520;DHT22;15732;48.534;20.382;2022-09-09T14:27:07;23.60;99.90
28520;DHT22;15732;48.534;20.382;2022-09-09T14:29:35;23.50;99.90
28520;DHT22;15732;48.534;20.382;2022-09-09T14:32:02;23.50;99.90
28520;DHT22;15732;48.534;20.382;2022-09-09T14:34:30;23.50;99.90
28520;DHT22;15732;48.534;20.382;2022-09-09T14:36:59;23.50;99.90
28520;DHT22;15732;48.534;20.382;2022-09-09T14:39:26;23.50;99.90
28520;DHT22;15732;48.534;20.382;2022-09-09T14:41:54;23.50;99.90
28520;DHT22;15732;48.534;20.382;2022-09-09T14:44:22;23.50;99.90
28520;DHT22;15732;48.534;20.382;2022-09-09T14:46:49;23.50;99.90
28520;DHT22;15732;48.534;20.382;2022-09-09T14:49:21;23.50;99.90
28520;DHT22;15732;48.534;20.382;2022-09-09T14:51:48;23.50;99.90
28520;DHT22;15732;48.534;20.382;2022-09-09T14:54:19;23.40;99.90
28520;DHT22;15732;48.534;20.382;2022-09-09T14:56:49;23.40;99.90
28520;DHT22;15732;48.534;20.382;2022-09-09T14:59:16;23.40;99.90
28520;DHT22;15732;48.534;20.382;2022-09-09T15:01:44;23.40;99.90
28520;DHT22;15732;48.534;20.382;2022-09-09T15:04:12;23.40;99.90
28520;DHT22;15732;48.534;20.382;2022-09-09T15:06:59;23.40;99.90
28520;DHT22;15732;48.534;20.382;2022-09-09T15:09:30;23.40;99.90
28520;DHT22;15732;48.534;20.382;2022-09-09T15:11:58;23.30;99.90
28520;DHT22;15732;48.534;20.382;2022-09-09T15:14:25;23.30;99.90
28520;DHT22;15732;48.534;20.382;2022-09-09T15:16:53;23.30;99.90
28520;DHT22;15732;48.534;20.382;2022-09-09T15:19:20;23.30;99.90
28520;DHT22;15732;48.534;20.382;2022-09-09T15:21:48;23.20;99.90
28520;DHT22;15732;48.534;20.382;2022-09-09T15:24:15;23.20;99.90
28520;DHT22;15732;48.534;20.382;2022-09-09T15:26:43;23.20;99.90
28520;DHT22;15732;48.534;20.382;2022-09-09T15:29:10;23.10;99.90
28520;DHT22;15732;48.534;20.382;2022-09-09T15:31:37;23.10;99.90
28520;DHT22;15732;48.534;20.382;2022-09-09T15:34:06;23.00;99.90
28520;DHT22;15732;48.534;20.382;2022-09-09T15:36:41;23.10;99.90
28520;DHT22;15732;48.534;20.382;2022-09-09T15:39:10;23.00;99.90
28520;DHT22;15732;48.534;20.382;2022-09-09T15:41:40;23.00;99.90
28520;DHT22;15732;48.534;20.382;2022-09-09T15:44:07;23.00;99.90
28520;DHT22;15732;48.534;20.382;2022-09-09T15:46:38;23.00;99.90
28520;DHT22;15732;48.534;20.382;2022-09-09T15:51:40;22.90;99.90
28520;DHT22;15732;48.534;20.382;2022-09-09T15:54:13;22.90;99.90
28520;DHT22;15732;48.534;20.382;2022-09-09T15:56:46;22.90;99.90
28520;DHT22;15732;48.534;20.382;2022-09-09T15:59:15;22.90;99.90
28520;DHT22;15732;48.534;20.382;2022-09-09T16:01:43;22.90;99.90
28520;DHT22;15732;48.534;20.382;2022-09-09T16:04:15;22.90;99.90
28520;DHT22;15732;48.534;20.382;2022-09-09T16:06:47;22.90;99.90
28520;DHT22;15732;48.534;20.382;2022-09-09T16:09:15;22.90;99.90
28520;DHT22;15732;48.534;20.382;2022-09-09T16:11:42;22.80;99.90
28520;DHT22;15732;48.534;20.382;2022-09-09T16:14:09;22.80;99.90
28520;DHT22;15732;48.534;20.382;2022-09-09T16:16:37;22.80;99.90
28520;DHT22;15732;48.534;20.382;2022-09-09T16:19:10;22.80;99.90
28520;DHT22;15732;48.534;20.382;2022-09-09T16:21:40;22.70;99.90
28520;DHT22;15732;48.534;20.382;2022-09-09T16:24:10;22.70;99.90
28520;DHT22;15732;48.534;20.382;2022-09-09T16:26:40;22.70;99.90
28520;DHT22;15732;48.534;20.382;2022-09-09T16:29:12;22.70;99.90
28520;DHT22;15732;48.534;20.382;2022-09-09T16:31:41;22.70;99.90
28520;DHT22;15732;48.534;20.382;2022-09-09T16:34:09;22.70;99.90
28520;DHT22;15732;48.534;20.382;2022-09-09T16:36:38;22.70;99.90
28520;DHT22;15732;48.534;20.382;2022-09-09T16:39:12;22.70;99.90
28520;DHT22;15732;48.534;20.382;2022-09-09T16:41:40;22.70;99.90
28520;DHT22;15732;48.534;20.382;2022-09-09T16:44:09;22.70;99.90
28520;DHT22;15732;48.534;20.382;2022-09-09T16:46:41;22.60;99.90
28520;DHT22;15732;48.534;20.382;2022-09-09T16:49:11;22.60;99.90
28520;DHT22;15732;48.534;20.382;2022-09-09T16:51:41;22.60;99.90
28520;DHT22;15732;48.534;20.382;2022-09-09T16:54:09;22.50;99.90
28520;DHT22;15732;48.534;20.382;2022-09-09T16:56:44;22.60;99.90
28520;DHT22;15732;48.534;20.382;2022-09-09T16:59:17;22.50;99.90
28520;DHT22;15732;48.534;20.382;2022-09-09T17:01:46;22.50;99.90
28520;DHT22;15732;48.534;20.382;2022-09-09T17:04:16;22.40;99.90
28520;DHT22;15732;48.534;20.382;2022-09-09T17:06:51;22.40;99.90
28520;DHT22;15732;48.534;20.382;2022-09-09T17:09:18;22.40;99.90
28520;DHT22;15732;48.534;20.382;2022-09-09T17:11:47;22.40;99.90
28520;DHT22;15732;48.534;20.382;2022-09-09T17:14:20;22.40;99.90
28520;DHT22;15732;48.534;20.382;2022-09-09T17:16:48;22.40;99.90
28520;DHT22;15732;48.534;20.382;2022-09-09T17:19:15;22.30;99.90
28520;DHT22;15732;48.534;20.382;2022-09-09T17:21:42;22.30;99.90
28520;DHT22;15732;48.534;20.382;2022-09-09T17:24:10;22.20;99.90
28520;DHT22;15732;48.534;20.382;2022-09-09T17:26:41;22.20;99.90
28520;DHT22;15732;48.534;20.382;2022-09-09T17:29:09;22.20;99.90
28520;DHT22;15732;48.534;20.382;2022-09-09T17:31:37;22.20;99.90
28520;DHT22;15732;48.534;20.382;2022-09-09T17:34:04;22.20;99.90
28520;DHT22;15732;48.534;20.382;2022-09-09T17:36:33;22.10;99.90
28520;DHT22;15732;48.534;20.382;2022-09-09T17:39:06;22.10;99.90
28520;DHT22;15732;48.534;20.382;2022-09-09T17:41:37;22.10;99.90
28520;DHT22;15732;48.534;20.382;2022-09-09T17:44:25;22.10;99.90
28520;DHT22;15732;48.534;20.382;2022-09-09T17:46:53;22.10;99.90
28520;DHT22;15732;48.534;20.382;2022-09-09T17:49:25;22.10;99.90
28520;DHT22;15732;48.534;20.382;2022-09-09T17:51:52;22.00;99.90
28520;DHT22;15732;48.534;20.382;2022-09-09T17:54:25;22.00;99.90
28520;DHT22;15732;48.534;20.382;2022-09-09T17:56:56;22.00;99.90
28520;DHT22;15732;48.534;20.382;2022-09-09T17:59:24;22.00;99.90
28520;DHT22;15732;48.534;20.382;2022-09-09T18:01:51;22.00;99.90